Time;durP1;ratioP1;P1;durP2;ratioP2;P2;SDS_P1;SDS_P2;PMS_P1;PMS_P2;Temp;Humidity;BMP_temperature;BMP_pressure;BME280_temperature;BME280_humidity;BME280_pressure;Samples;Min_cycle;Max_cycle;Signal;HPM_P1;HPM_P2
2022/03/27 00:00:48;;;;;;;24.63;6.40;;;;;;;0.65;100.00;100164.25;4431246;32;20118;-73
2022/03/27 00:03:16;;;;;;;26.87;7.43;;;;;;;0.59;100.00;100177.31;4433054;32;20386;-72
2022/03/27 00:05:42;;;;;;;44.00;14.02;;;;;;;0.59;100.00;100169.34;4433342;32;20063;-73
2022/03/27 00:08:09;;;;;;;21.02;7.50;;;;;;;0.13;100.00;100106.00;4431929;32;20033;-72
2022/03/27 00:13:27;;;;;;;28.77;6.12;;;;;;;0.53;100.00;100173.47;4430944;32;20463;-74
2022/03/27 00:15:54;;;;;;;22.48;5.80;;;;;;;0.46;100.00;100170.62;4432251;32;20046;-72
2022/03/27 00:18:21;;;;;;;19.10;5.87;;;;;;;0.44;100.00;100171.75;4433337;32;20106;-72
2022/03/27 00:20:47;;;;;;;27.58;7.60;;;;;;;0.47;100.00;100197.94;4429171;32;20082;-72
2022/03/27 00:23:14;;;;;;;36.33;11.52;;;;;;;0.35;100.00;100184.94;4424423;32;20050;-72
2022/03/27 00:25:40;;;;;;;26.20;6.87;;;;;;;0.32;100.00;100179.97;4414730;32;20026;-73
2022/03/27 00:28:07;;;;;;;28.38;8.20;;;;;;;0.35;100.00;100192.91;4427904;32;20055;-73
2022/03/27 00:30:33;;;;;;;32.97;9.88;;;;;;;0.26;100.00;100180.59;4432316;32;20046;-72
2022/03/27 00:33:00;;;;;;;21.20;5.90;;;;;;;-0.02;100.00;100137.50;4424247;32;20060;-72
2022/03/27 00:35:26;;;;;;;24.35;6.47;;;;;;;0.16;100.00;100185.97;4429545;32;20050;-72
2022/03/27 00:37:53;;;;;;;18.83;6.72;;;;;;;0.23;100.00;100201.25;4431377;32;20050;-72
2022/03/27 00:40:19;;;;;;;31.12;8.02;;;;;;;-0.10;100.00;100140.91;4433346;32;20079;-73
2022/03/27 00:42:45;;;;;;;13.82;5.15;;;;;;;-0.20;100.00;100132.22;4433136;32;20033;-73
2022/03/27 00:45:12;;;;;;;16.20;5.10;;;;;;;0.17;100.00;100197.38;4433682;32;20064;-73
2022/03/27 00:47:38;;;;;;;9.82;4.25;;;;;;;0.14;100.00;100192.41;4431318;32;20054;-74
2022/03/27 00:50:06;;;;;;;10.15;3.17;;;;;;;-0.35;100.00;100129.28;4431021;32;20061;-74
2022/03/27 00:52:32;;;;;;;7.12;3.05;;;;;;;0.08;100.00;100185.06;4416023;32;20068;-74
2022/03/27 00:55:00;;;;;;;11.00;3.45;;;;;;;0.15;100.00;100199.38;4417917;32;20092;-73
2022/03/27 00:57:33;;;;;;;11.85;4.07;;;;;;;-0.10;100.00;100170.03;4422083;32;20083;-73
2022/03/27 01:00:00;;;;;;;12.73;4.10;;;;;;;0.10;100.00;100206.94;4428992;32;20037;-74
2022/03/27 01:02:26;;;;;;;14.05;4.25;;;;;;;0.07;100.00;100202.78;4415640;32;20089;-74
2022/03/27 01:04:55;;;;;;;15.50;5.57;;;;;;;0.03;100.00;100200.59;4415948;32;20034;-74
2022/03/27 01:07:22;;;;;;;10.82;3.65;;;;;;;0.07;100.00;100199.31;4417319;32;20349;-74
2022/03/27 01:09:49;;;;;;;14.77;3.62;;;;;;;0.01;100.00;100189.31;4403764;32;20085;-76
2022/03/27 01:12:18;;;;;;;15.85;5.50;;;;;;;0.03;100.00;100197.94;4414301;32;20038;-74
2022/03/27 01:14:45;;;;;;;19.33;6.05;;;;;;;0.08;100.00;100208.91;4404222;32;20401;-72
2022/03/27 01:17:16;;;;;;;28.50;7.95;;;;;;;-0.31;100.00;100129.81;4419820;32;20046;-73
2022/03/27 01:19:46;;;;;;;23.73;7.50;;;;;;;0.05;100.00;100201.25;4431694;32;20084;-74
2022/03/27 01:22:15;;;;;;;26.00;7.63;;;;;;;0.06;100.00;100208.22;4427559;32;20085;-73
2022/03/27 01:24:41;;;;;;;22.73;6.45;;;;;;;-0.28;100.00;100148.03;4431612;32;20148;-73
2022/03/27 01:27:15;;;;;;;22.20;7.62;;;;;;;0.03;100.00;100200.59;4431749;32;20046;-72
2022/03/27 01:29:41;;;;;;;16.83;6.15;;;;;;;0.04;100.00;100197.78;4431274;32;20041;-74
2022/03/27 01:32:14;;;;;;;15.98;4.82;;;;;;;-0.33;100.00;100153.78;4429466;32;20030;-73
2022/03/27 01:34:44;;;;;;;21.58;5.22;;;;;;;-0.07;100.00;100206.78;4419099;32;20045;-73
2022/03/27 01:37:16;;;;;;;16.52;4.97;;;;;;;-0.38;100.00;100154.22;4431133;32;20027;-73
2022/03/27 01:39:43;;;;;;;16.65;4.35;;;;;;;-0.08;100.00;100215.72;4431479;32;20047;-72
2022/03/27 01:42:16;;;;;;;19.30;5.18;;;;;;;-0.30;100.00;100179.09;4431850;32;20062;-72
2022/03/27 01:44:43;;;;;;;19.00;4.68;;;;;;;-0.06;100.00;100213.75;4417195;32;20060;-73
2022/03/27 01:47:09;;;;;;;16.87;5.10;;;;;;;-0.15;100.00;100198.78;4416728;32;20457;-73
2022/03/27 01:49:36;;;;;;;23.38;7.05;;;;;;;-0.20;100.00;100198.41;4417205;32;20030;-73
2022/03/27 01:52:03;;;;;;;28.33;7.43;;;;;;;-0.20;100.00;100206.34;4428755;32;20085;-74
2022/03/27 01:54:29;;;;;;;20.90;7.62;;;;;;;-0.24;100.00;100189.94;4432166;32;20071;-73
2022/03/27 01:56:56;;;;;;;27.20;9.60;;;;;;;-0.43;100.00;100161.78;4430911;32;20038;-73
2022/03/27 01:59:23;;;;;;;23.38;6.62;;;;;;;-0.43;100.00;100158.28;4430984;32;20056;-73
2022/03/27 02:01:50;;;;;;;20.25;6.20;;;;;;;-0.53;100.00;100153.09;4429861;32;20034;-74
2022/03/27 02:04:17;;;;;;;25.35;7.22;;;;;;;-0.14;100.00;100210.19;4429595;32;20080;-73
2022/03/27 02:06:44;;;;;;;32.92;8.90;;;;;;;-0.22;100.00;100206.50;4429407;32;20404;-73
2022/03/27 02:09:12;;;;;;;23.80;8.38;;;;;;;-0.27;100.00;100210.56;4416945;32;20048;-72
2022/03/27 02:11:40;;;;;;;30.42;9.00;;;;;;;-0.29;100.00;100215.19;4410659;32;20042;-72
2022/03/27 02:14:08;;;;;;;22.90;7.10;;;;;;;-0.37;100.00;100216.78;4400343;32;20378;-72
2022/03/27 02:16:36;;;;;;;25.42;8.80;;;;;;;-0.37;100.00;100231.81;4411118;32;20698;-72
2022/03/27 02:19:06;;;;;;;16.70;6.37;;;;;;;-0.37;100.00;100222.06;4424205;32;20042;-72
2022/03/27 02:21:34;;;;;;;21.67;6.00;;;;;;;-0.68;100.00;100168.66;4431868;32;20424;-72
2022/03/27 02:24:03;;;;;;;16.90;5.20;;;;;;;-0.42;100.00;100226.94;4428564;32;20034;-74
2022/03/27 02:26:32;;;;;;;16.62;5.85;;;;;;;-0.58;100.00;100224.13;4414749;32;20106;-72
2022/03/27 02:28:59;;;;;;;13.95;4.65;;;;;;;-0.81;100.00;100176.94;4427079;32;20406;-73
2022/03/27 02:31:26;;;;;;;18.20;4.82;;;;;;;-0.84;100.00;100193.09;4429754;32;20406;-73
2022/03/27 02:33:52;;;;;;;19.77;5.90;;;;;;;-0.67;100.00;100235.59;4417175;32;20400;-73
2022/03/27 02:36:19;;;;;;;24.33;6.57;;;;;;;-0.65;100.00;100238.94;4413221;32;20443;-73
2022/03/27 02:38:45;;;;;;;12.75;4.93;;;;;;;-1.21;100.00;100154.31;4408102;32;20128;-73
2022/03/27 02:41:12;;;;;;;17.15;4.18;;;;;;;-0.68;100.00;100241.88;4427868;32;20405;-73
2022/03/27 02:43:38;;;;;;;18.10;5.45;;;;;;;-0.59;100.00;100243.63;4430139;32;20212;-73
2022/03/27 02:46:06;;;;;;;16.10;4.37;;;;;;;-0.88;100.00;100190.88;4430761;32;20034;-73
2022/03/27 02:48:32;;;;;;;15.65;5.20;;;;;;;-0.58;100.00;100245.31;4430031;32;20043;-74
2022/03/27 02:50:59;;;;;;;15.95;5.00;;;;;;;-0.62;100.00;100254.53;4431432;32;20098;-74
2022/03/27 02:53:25;;;;;;;16.95;4.45;;;;;;;-0.77;100.00;100259.44;4432216;32;20159;-72
2022/03/27 02:55:51;;;;;;;14.05;5.05;;;;;;;-0.79;100.00;100264.06;4418604;32;20018;-72
2022/03/27 02:58:18;;;;;;;17.65;5.10;;;;;;;-0.81;100.00;100261.56;4430228;32;20085;-72
2022/03/27 03:00:45;;;;;;;20.37;5.12;;;;;;;-0.82;100.00;100265.19;4430447;32;20356;-74
2022/03/27 03:03:13;;;;;;;16.90;5.05;;;;;;;-0.85;100.00;100270.75;4430893;32;20049;-73
2022/03/27 03:05:42;;;;;;;19.83;5.05;;;;;;;-1.17;100.00;100219.09;4424424;32;20067;-72
2022/03/27 03:08:11;;;;;;;12.07;3.85;;;;;;;-0.98;100.00;100257.03;4415591;32;20026;-71
2022/03/27 03:10:39;;;;;;;16.00;4.70;;;;;;;-1.33;100.00;100203.03;4401745;32;20044;-73
2022/03/27 03:13:07;;;;;;;21.20;5.07;;;;;;;-0.92;100.00;100282.91;4415923;32;20057;-73
2022/03/27 03:15:38;;;;;;;16.73;4.15;;;;;;;-0.96;100.00;100278.88;4416410;32;20085;-72
2022/03/27 03:18:06;;;;;;;17.45;5.43;;;;;;;-1.00;100.00;100282.78;4430677;32;20068;-72
2022/03/27 03:20:33;;;;;;;14.48;4.68;;;;;;;-1.37;100.00;100217.50;4413420;32;20379;-72
2022/03/27 03:22:59;;;;;;;33.28;7.85;;;;;;;-1.03;100.00;100275.16;4430495;32;20811;-72
2022/03/27 03:25:26;;;;;;;16.17;4.90;;;;;;;-1.03;100.00;100267.22;4431012;32;20060;-72
2022/03/27 03:27:52;;;;;;;13.48;5.25;;;;;;;-1.05;100.00;100274.44;4416446;32;20050;-71
2022/03/27 03:30:19;;;;;;;17.45;5.97;;;;;;;-1.08;100.00;100269.47;4431075;32;20098;-71
2022/03/27 03:32:45;;;;;;;18.05;5.57;;;;;;;-0.99;100.00;100279.16;4426041;32;20301;-73
2022/03/27 03:35:12;;;;;;;21.73;7.12;;;;;;;-1.01;100.00;100292.50;4430698;32;20134;-71
2022/03/27 03:37:38;;;;;;;25.40;7.00;;;;;;;-1.15;100.00;100270.03;4430695;32;20050;-72
2022/03/27 03:40:08;;;;;;;21.85;7.50;;;;;;;-1.06;100.00;100293.94;4431172;32;20068;-71
2022/03/27 03:42:36;;;;;;;27.75;8.18;;;;;;;-1.11;100.00;100281.16;4416211;32;20085;-72
2022/03/27 03:45:04;;;;;;;24.80;8.93;;;;;;;-1.53;100.00;100245.34;4413386;32;20386;-73
2022/03/27 03:47:30;;;;;;;20.92;7.90;;;;;;;-1.36;100.00;100295.78;4414694;32;20030;-72
2022/03/27 03:49:57;;;;;;;23.77;7.87;;;;;;;-1.46;100.00;100294.00;4419381;32;20056;-71
2022/03/27 03:52:23;;;;;;;23.23;8.73;;;;;;;-1.56;100.00;100300.28;4430607;32;20552;-72
2022/03/27 03:54:49;;;;;;;21.15;8.38;;;;;;;-1.93;100.00;100246.38;4431174;32;20034;-71
2022/03/27 03:57:16;;;;;;;29.90;8.32;;;;;;;-1.70;100.00;100296.25;4428320;32;20052;-71
2022/03/27 03:59:43;;;;;;;15.32;6.12;;;;;;;-1.96;100.00;100270.41;4429971;32;20046;-72
2022/03/27 04:02:10;;;;;;;18.45;4.12;;;;;;;-2.09;100.00;100259.25;4430267;32;20352;-72
2022/03/27 04:04:38;;;;;;;19.25;6.57;;;;;;;-1.73;100.00;100317.66;4413105;32;20064;-72
2022/03/27 04:07:04;;;;;;;20.55;6.10;;;;;;;-1.74;100.00;100289.56;4414950;32;20035;-72
2022/03/27 04:09:31;;;;;;;12.85;4.15;;;;;;;-1.59;100.00;100308.47;4413084;32;20030;-73
2022/03/27 04:11:58;;;;;;;14.90;4.57;;;;;;;-1.85;100.00;100270.25;4415476;32;20076;-72
2022/03/27 04:14:24;;;;;;;18.58;6.32;;;;;;;-1.59;100.00;100298.75;4415303;32;20038;-72
2022/03/27 04:16:51;;;;;;;13.57;5.20;;;;;;;-1.41;100.00;100317.34;4400195;32;20053;-72
2022/03/27 04:19:18;;;;;;;16.40;6.60;;;;;;;-1.26;100.00;100331.00;4399568;32;20084;-72
2022/03/27 04:21:45;;;;;;;8.27;4.53;;;;;;;-1.23;100.00;100324.56;4420382;32;20063;-71
2022/03/27 04:24:11;;;;;;;11.77;3.40;;;;;;;-1.47;100.00;100280.94;4415051;32;20466;-71
2022/03/27 04:26:40;;;;;;;18.80;4.20;;;;;;;-1.25;100.00;100314.13;4430557;32;20043;-71
2022/03/27 04:29:08;;;;;;;15.23;4.12;;;;;;;-1.15;100.00;100322.91;4414682;32;20072;-72
2022/03/27 04:31:34;;;;;;;11.10;4.35;;;;;;;-1.31;100.00;100285.63;4399334;32;20023;-73
2022/03/27 04:34:01;;;;;;;15.10;5.78;;;;;;;-1.12;100.00;100322.63;4412218;32;20068;-71
2022/03/27 04:36:27;;;;;;;15.23;4.25;;;;;;;-1.06;100.00;100325.66;4414065;32;20027;-71
2022/03/27 04:38:55;;;;;;;13.05;3.78;;;;;;;-1.02;100.00;100324.38;4414108;32;20015;-72
2022/03/27 04:41:22;;;;;;;16.62;3.95;;;;;;;-1.33;100.00;100282.31;4418028;32;20050;-71
2022/03/27 04:43:48;;;;;;;15.70;4.40;;;;;;;-1.02;100.00;100332.31;4428779;32;20038;-73
2022/03/27 04:46:16;;;;;;;11.32;4.75;;;;;;;-1.31;100.00;100280.34;4417684;32;20046;-72
2022/03/27 04:48:43;;;;;;;21.00;6.57;;;;;;;-1.00;100.00;100331.22;4416399;32;20089;-72
2022/03/27 04:51:10;;;;;;;15.60;4.82;;;;;;;-0.99;100.00;100332.88;4417877;32;20367;-70
2022/03/27 04:53:37;;;;;;;11.70;4.18;;;;;;;-1.01;100.00;100339.28;4406210;32;20030;-71
2022/03/27 04:56:05;;;;;;;11.15;4.45;;;;;;;-1.10;100.00;100330.41;4414791;32;20046;-72
2022/03/27 04:58:32;;;;;;;15.05;4.62;;;;;;;-1.10;100.00;100341.81;4418834;32;20042;-71
2022/03/27 05:00:59;;;;;;;12.57;3.95;;;;;;;-1.37;100.00;100291.47;4424841;32;20064;-71
2022/03/27 05:03:26;;;;;;;13.82;4.35;;;;;;;-1.03;100.00;100333.31;4424496;32;20072;-71
2022/03/27 05:05:53;;;;;;;12.37;4.72;;;;;;;-1.00;100.00;100331.22;4425834;32;20076;-70
2022/03/27 05:08:20;;;;;;;13.10;4.20;;;;;;;-1.13;100.00;100310.38;4422802;32;20092;-71
2022/03/27 05:10:47;;;;;;;15.35;4.97;;;;;;;-0.98;100.00;100329.25;4410506;32;20386;-70
2022/03/27 05:13:17;;;;;;;15.00;6.20;;;;;;;-0.87;100.00;100352.06;4425939;32;20085;-70
2022/03/27 05:15:44;;;;;;;17.00;5.20;;;;;;;-1.00;100.00;100319.81;4425183;32;20076;-69
2022/03/27 05:18:12;;;;;;;19.92;5.70;;;;;;;-0.78;100.00;100356.50;4411975;32;20034;-69
2022/03/27 05:20:45;;;;;;;18.50;4.90;;;;;;;-1.06;100.00;100299.22;4410702;32;20063;-69
2022/03/27 05:23:11;;;;;;;12.35;5.00;;;;;;;-1.05;100.00;100293.78;4413553;32;20119;-69
2022/03/27 05:25:45;;;;;;;12.30;4.37;;;;;;;-0.72;100.00;100339.19;4424842;32;20052;-70
2022/03/27 05:28:14;;;;;;;14.07;5.40;;;;;;;-0.89;100.00;100306.41;4431004;32;20050;-70
2022/03/27 05:30:41;;;;;;;14.82;5.62;;;;;;;-0.64;100.00;100335.84;4430031;32;20063;-70
2022/03/27 05:33:08;;;;;;;22.23;7.07;;;;;;;-0.85;100.00;100307.78;4418213;32;20042;-70
2022/03/27 05:35:35;;;;;;;17.62;5.90;;;;;;;-0.86;100.00;100295.56;4431826;32;20046;-73
2022/03/27 05:38:01;;;;;;;15.60;6.37;;;;;;;-0.54;100.00;100347.22;4431232;32;20409;-72
2022/03/27 05:43:01;;;;;;;15.23;6.90;;;;;;;-0.45;100.00;100345.50;4431685;32;20083;-71
2022/03/27 05:45:28;;;;;;;20.15;6.78;;;;;;;-0.42;100.00;100351.34;4432589;32;20064;-71
2022/03/27 05:47:55;;;;;;;13.68;5.62;;;;;;;-0.71;100.00;100293.25;4432055;32;20056;-72
2022/03/27 05:50:22;;;;;;;18.30;5.95;;;;;;;-0.60;100.00;100310.75;4431893;32;20042;-72
2022/03/27 05:52:51;;;;;;;18.98;7.05;;;;;;;-0.56;100.00;100301.53;4416681;32;20060;-75
2022/03/27 05:55:17;;;;;;;14.32;6.82;;;;;;;-0.21;100.00;100352.91;4423750;32;20069;-72
2022/03/27 05:57:45;;;;;;;21.98;7.60;;;;;;;-0.22;100.00;100345.97;4403094;32;20039;-72
2022/03/27 06:00:13;;;;;;;18.50;6.78;;;;;;;-0.20;100.00;100346.66;4416843;32;20034;-69
2022/03/27 06:02:41;;;;;;;22.08;6.25;;;;;;;-0.37;100.00;100314.69;4427770;32;20050;-74
2022/03/27 06:05:17;;;;;;;18.27;7.35;;;;;;;0.02;100.00;100368.41;4430728;32;20774;-72
2022/03/27 06:07:46;;;;;;;16.40;6.65;;;;;;;0.05;100.00;100370.75;4417782;32;20042;-72
2022/03/27 06:10:13;;;;;;;14.40;5.32;;;;;;;0.11;100.00;100378.97;4418335;32;20026;-73
2022/03/27 06:12:40;;;;;;;19.40;6.47;;;;;;;0.16;100.00;100381.12;4423200;32;20077;-71
2022/03/27 06:15:07;;;;;;;9.48;4.37;;;;;;;0.25;100.00;100390.84;4424385;32;20050;-74
2022/03/27 06:17:39;;;;;;;16.60;5.40;;;;;;;0.05;100.00;100341.63;4431348;32;20042;-72
2022/03/27 06:20:06;;;;;;;15.30;4.37;;;;;;;0.47;100.00;100388.75;4409059;32;20045;-72
2022/03/27 06:22:33;;;;;;;8.82;4.30;;;;;;;0.46;100.00;100385.28;4417536;32;20161;-72
2022/03/27 06:24:59;;;;;;;6.47;3.15;;;;;;;0.35;100.00;100359.84;4416352;32;20022;-72
2022/03/27 06:27:26;;;;;;;12.63;3.50;;;;;;;0.70;100.00;100405.88;4425671;32;20039;-74
2022/03/27 06:29:53;;;;;;;11.85;3.87;;;;;;;0.85;100.00;100413.31;4431433;32;20050;-72
2022/03/27 06:32:19;;;;;;;12.70;3.92;;;;;;;0.96;100.00;100413.06;4430685;32;20063;-71
2022/03/27 06:34:45;;;;;;;15.57;4.78;;;;;;;1.05;100.00;100413.94;4431720;32;20427;-72
2022/03/27 06:37:12;;;;;;;15.80;5.15;;;;;;;0.90;100.00;100373.88;4430879;32;20298;-72
2022/03/27 06:39:38;;;;;;;16.35;5.15;;;;;;;1.05;100.00;100385.63;4430831;32;20466;-72
2022/03/27 06:42:06;;;;;;;11.88;3.65;;;;;;;1.47;100.00;100438.97;4425053;32;20042;-73
2022/03/27 06:56:27;;;;;;;11.02;3.90;;;;;;;2.13;100.00;100469.38;4445794;32;20167;-74
2022/03/27 06:58:54;;;;;;;13.68;4.03;;;;;;;2.13;100.00;100469.38;4444466;32;20054;-70
2022/03/27 07:04:06;;;;;;;11.80;3.90;;;;;;;1.74;100.00;100457.41;4426113;32;20064;-72
2022/03/27 07:06:33;;;;;;;8.63;3.60;;;;;;;1.91;100.00;100468.09;4428963;32;20435;-70
2022/03/27 07:09:00;;;;;;;7.80;3.25;;;;;;;1.96;100.00;100461.34;4430948;32;20060;-70
2022/03/27 07:11:27;;;;;;;8.63;2.20;;;;;;;2.02;100.00;100462.50;4429269;32;20085;-70
2022/03/27 07:13:54;;;;;;;5.78;2.53;;;;;;;2.18;100.00;100465.22;4427861;32;20042;-71
2022/03/27 07:16:20;;;;;;;12.00;2.53;;;;;;;2.16;100.00;100461.09;4415972;32;20038;-71
2022/03/27 07:18:49;;;;;;;6.18;2.50;;;;;;;2.23;100.00;100471.91;4419083;32;20123;-72
2022/03/27 07:21:18;;;;;;;11.25;2.30;;;;;;;2.30;100.00;100467.63;4429555;32;20030;-70
2022/03/27 07:23:45;;;;;;;2.67;1.70;;;;;;;2.48;100.00;100470.19;4429060;32;20046;-69
2022/03/27 07:26:12;;;;;;;6.47;2.15;;;;;;;2.52;100.00;100466.19;4590323;27;20435;-70
2022/03/27 07:28:38;;;;;;;7.95;2.17;;;;;;;2.23;100.00;100397.50;4385270;32;20363;-69
2022/03/27 07:31:04;;;;;;;3.45;1.70;;;;;;;2.25;100.00;100379.56;4396763;32;20047;-69
2022/03/27 07:33:31;;;;;;;1.55;1.30;;;;;;;2.65;100.00;100444.44;4399484;32;20055;-69
2022/03/27 07:35:57;;;;;;;6.03;1.40;;;;;;;2.69;94.22;100451.09;4396614;32;20038;-70
2022/03/27 07:38:24;;;;;;;2.92;0.88;;;;;;;2.75;85.49;100455.78;4394298;32;20405;-70
2022/03/27 07:40:51;;;;;;;2.17;1.12;;;;;;;2.82;83.12;100446.13;4394086;32;20165;-70
2022/03/27 07:43:17;;;;;;;1.85;1.00;;;;;;;2.83;80.53;100453.13;4395014;32;20458;-71
2022/03/27 07:45:43;;;;;;;2.45;1.00;;;;;;;2.63;80.45;100420.69;4396809;32;20062;-70
2022/03/27 07:48:10;;;;;;;2.72;1.20;;;;;;;3.01;78.42;100465.44;4397616;32;20039;-70
2022/03/27 07:50:37;;;;;;;3.15;1.40;;;;;;;2.79;77.63;100417.19;4397061;32;20047;-71
2022/03/27 07:53:05;;;;;;;4.93;0.98;;;;;;;2.86;74.28;100415.56;4397188;32;20340;-71
2022/03/27 07:55:32;;;;;;;4.47;1.45;;;;;;;2.86;70.14;100426.19;4392955;32;20045;-70
2022/03/27 07:57:59;;;;;;;10.88;1.40;;;;;;;3.14;67.56;100476.44;4368102;32;20462;-79
2022/03/27 08:00:30;;;;;;;3.92;1.15;;;;;;;2.84;66.66;100432.66;4386343;32;20039;-71
2022/03/27 08:02:57;;;;;;;1.25;1.12;;;;;;;3.16;66.14;100479.78;4387835;32;20039;-70
2022/03/27 08:05:24;;;;;;;5.18;1.75;;;;;;;3.33;66.08;100474.44;4383030;32;20064;-80
2022/03/27 08:07:50;;;;;;;3.35;1.10;;;;;;;3.08;67.96;100429.22;4378284;32;20116;-79
2022/03/27 08:10:17;;;;;;;2.03;1.05;;;;;;;3.14;67.44;100417.88;4384580;32;20072;-71
2022/03/27 08:12:44;;;;;;;2.08;1.17;;;;;;;3.50;68.34;100481.44;4371008;32;20035;-70
2022/03/27 08:15:11;;;;;;;1.70;1.12;;;;;;;3.46;67.37;100464.09;4381773;32;20077;-70
2022/03/27 08:17:38;;;;;;;2.97;1.48;;;;;;;3.58;66.59;100484.06;4369062;32;20044;-70
2022/03/27 08:20:05;;;;;;;2.87;1.60;;;;;;;3.56;69.57;100472.78;4369936;32;20053;-70
2022/03/27 08:22:33;;;;;;;1.12;0.90;;;;;;;3.44;67.22;100437.66;4387243;32;20455;-71
2022/03/27 08:24:59;;;;;;;2.55;1.40;;;;;;;3.68;61.46;100483.06;4375004;32;20112;-70
2022/03/27 08:27:27;;;;;;;1.20;0.77;;;;;;;3.67;56.43;100474.25;4385557;32;20059;-70
2022/03/27 08:29:53;;;;;;;1.15;0.90;;;;;;;3.80;55.82;100473.72;4360186;32;20155;-71
2022/03/27 08:32:20;;;;;;;5.35;1.10;;;;;;;3.71;55.22;100472.09;4382793;32;20104;-72
2022/03/27 08:34:47;;;;;;;1.10;0.98;;;;;;;3.64;58.10;100456.78;4386555;32;20203;-73
2022/03/27 08:37:16;;;;;;;3.87;1.10;;;;;;;3.77;57.39;100474.06;4381762;32;20069;-74
2022/03/27 08:39:47;;;;;;;1.33;0.80;;;;;;;3.79;58.69;100469.41;4379008;32;20433;-73
2022/03/27 08:42:16;;;;;;;1.10;0.95;;;;;;;3.80;58.37;100468.41;4383821;32;20085;-73
2022/03/27 08:44:42;;;;;;;2.37;0.98;;;;;;;3.86;57.11;100459.75;4385862;32;20039;-74
2022/03/27 08:47:15;;;;;;;3.05;1.02;;;;;;;3.64;57.22;100422.16;4386324;32;20040;-73
2022/03/27 08:49:54;;;;;;;1.80;1.12;;;;;;;3.94;55.65;100464.19;4385730;32;20055;-72
2022/03/27 08:52:21;;;;;;;2.17;1.15;;;;;;;4.08;55.14;100462.66;4386630;32;20358;-72
2022/03/27 08:55:08;;;;;;;1.77;1.10;;;;;;;4.11;54.27;100441.81;4383484;32;20088;-72
2022/03/27 08:57:37;;;;;;;4.85;1.33;;;;;;;4.14;54.87;100435.31;4384993;32;20032;-72
2022/03/27 09:00:05;;;;;;;2.10;1.08;;;;;;;4.21;53.76;100446.94;4384339;32;20376;-75
2022/03/27 09:02:32;;;;;;;1.95;0.85;;;;;;;4.20;54.12;100455.94;4384249;32;20027;-73
2022/03/27 09:04:59;;;;;;;12.70;1.50;;;;;;;4.28;52.19;100452.41;4385629;32;20393;-72
2022/03/27 09:07:30;;;;;;;4.10;0.90;;;;;;;4.19;51.37;100443.59;4379290;32;20387;-72
2022/03/27 09:10:00;;;;;;;1.67;0.85;;;;;;;4.18;50.39;100452.62;4381901;32;20397;-73
2022/03/27 09:12:27;;;;;;;4.35;1.77;;;;;;;4.13;52.95;100441.63;4368767;32;20408;-73
2022/03/27 09:14:53;;;;;;;4.57;2.00;;;;;;;4.26;54.64;100444.59;4385347;32;20055;-73
2022/03/27 09:17:20;;;;;;;2.12;1.33;;;;;;;4.26;54.34;100436.59;4381180;32;20090;-75
2022/03/27 09:19:49;;;;;;;2.17;1.45;;;;;;;4.21;54.06;100435.44;4384428;32;21054;-74
2022/03/27 09:22:27;;;;;;;8.70;1.25;;;;;;;3.98;54.62;100394.38;4384484;32;20032;-73
2022/03/27 09:25:03;;;;;;;2.45;1.00;;;;;;;4.37;55.87;100441.53;4381645;32;20058;-75
2022/03/27 09:27:30;;;;;;;1.75;1.08;;;;;;;4.11;53.34;100401.81;4382095;32;20080;-74
2022/03/27 09:30:18;;;;;;;2.37;1.37;;;;;;;4.16;51.96;100406.63;4383888;32;20073;-73
2022/03/27 09:32:45;;;;;;;1.45;1.00;;;;;;;4.50;51.76;100456.12;4367773;32;20027;-74
2022/03/27 09:35:17;;;;;;;4.47;1.27;;;;;;;4.52;51.27;100443.47;4382033;32;20091;-73
2022/03/27 09:37:46;;;;;;;1.73;1.20;;;;;;;4.53;50.74;100447.75;4386306;32;20174;-72
2022/03/27 09:40:15;;;;;;;2.58;1.20;;;;;;;4.30;51.14;100400.56;4385084;32;20430;-72
2022/03/27 09:42:43;;;;;;;1.85;1.00;;;;;;;4.52;49.88;100416.78;4384350;32;20039;-74
2022/03/27 09:45:23;;;;;;;1.55;1.02;;;;;;;4.67;51.70;100424.84;4384339;32;20728;-72
2022/03/27 09:47:53;;;;;;;1.00;1.00;;;;;;;4.29;50.44;100342.91;4384355;32;20415;-72
2022/03/27 09:50:35;;;;;;;9.30;1.35;;;;;;;4.55;49.44;100381.75;4358905;32;20363;-74
2022/03/27 09:53:26;;;;;;;2.12;1.02;;;;;;;4.99;54.96;100430.97;4370760;32;20043;-72
2022/03/27 09:55:58;;;;;;;3.08;1.87;;;;;;;5.18;51.50;100433.13;4369008;32;20061;-74
2022/03/27 09:58:35;;;;;;;2.40;1.40;;;;;;;5.01;52.27;100387.06;4380906;32;20088;-72
2022/03/27 10:03:58;;;;;;;5.18;1.30;;;;;;;5.46;56.47;100366.59;4371342;32;20061;-73
2022/03/27 10:06:29;;;;;;;1.95;1.12;;;;;;;5.75;49.75;100412.22;4369192;32;20031;-72
2022/03/27 10:08:57;;;;;;;2.37;1.30;;;;;;;5.75;48.04;100401.53;4356559;32;20068;-74
2022/03/27 10:11:24;;;;;;;2.08;1.10;;;;;;;5.78;46.67;100396.66;4368659;32;20031;-72
2022/03/27 10:13:55;;;;;;;4.90;1.62;;;;;;;5.76;45.98;100409.38;4374960;32;20043;-72
2022/03/27 10:16:50;;;;;;;6.00;1.15;;;;;;;5.70;46.67;100394.06;4383303;32;20409;-73
2022/03/27 10:19:32;;;;;;;1.65;0.90;;;;;;;5.55;46.76;100353.16;4385463;32;20481;-73
2022/03/27 10:22:05;;;;;;;3.17;1.20;;;;;;;5.71;46.84;100342.28;4384326;32;20391;-72
2022/03/27 10:24:32;;;;;;;3.05;1.20;;;;;;;6.09;45.99;100384.94;4385041;32;20055;-73
2022/03/27 10:27:02;;;;;;;3.83;1.40;;;;;;;6.08;46.71;100369.94;4384110;32;20040;-72
2022/03/27 10:29:29;;;;;;;2.17;1.42;;;;;;;6.02;44.89;100335.09;4385502;32;20027;-74
2022/03/27 10:31:58;;;;;;;4.03;2.28;;;;;;;6.22;45.66;100332.63;4383822;32;20112;-75
2022/03/27 10:34:26;;;;;;;5.15;1.50;;;;;;;6.30;44.04;100336.03;4384954;32;20065;-73
2022/03/27 10:37:30;;;;;;;2.87;1.37;;;;;;;6.47;45.25;100331.25;4379457;32;20039;-73
2022/03/27 10:40:33;;;;;;;3.97;1.20;;;;;;;6.85;44.43;100376.47;4343761;32;20371;-73
2022/03/27 10:43:11;;;;;;;6.75;1.70;;;;;;;6.93;43.13;100369.34;4342971;32;20458;-72
2022/03/27 10:45:38;;;;;;;1.98;1.50;;;;;;;6.99;44.33;100372.09;4384656;32;20066;-72
2022/03/27 10:48:07;;;;;;;2.75;2.05;;;;;;;7.19;43.44;100366.03;4385796;32;20043;-72
2022/03/27 10:50:49;;;;;;;1.12;1.12;;;;;;;7.33;43.16;100372.34;4367261;32;20439;-73
2022/03/27 10:53:16;;;;;;;;;;;;;;;7.05;42.38;100327.59;4378524;32;20885;-72
2022/03/27 10:55:48;;;;;;;1.15;1.00;;;;;;;7.50;41.96;100372.84;4377279;32;19939;-72
2022/03/27 10:58:40;;;;;;;;;;;;;;;7.61;42.18;100359.75;4383637;32;20065;-72
2022/03/27 11:01:22;;;;;;;5.07;1.77;;;;;;;7.55;41.40;100357.84;4377690;32;20714;-71
2022/03/27 11:04:04;;;;;;;6.53;1.50;;;;;;;7.39;43.45;100312.59;4378457;32;20380;-71
2022/03/27 11:06:40;;;;;;;2.50;1.27;;;;;;;7.83;42.25;100356.94;4368458;32;20513;-72
2022/03/27 11:09:09;;;;;;;2.53;1.40;;;;;;;8.30;44.29;100347.22;4385361;32;20047;-72
2022/03/27 11:11:35;;;;;;;4.22;1.10;;;;;;;8.73;41.36;100346.09;4360173;32;20069;-72
2022/03/27 11:14:08;;;;;;;5.37;1.25;;;;;;;8.92;41.20;100333.72;4369004;32;20043;-74
2022/03/27 11:17:04;;;;;;;3.40;1.40;;;;;;;7.97;39.71;100283.56;4367340;32;20040;-72
2022/03/27 11:19:47;;;;;;;6.72;2.75;;;;;;;8.69;40.09;100332.22;4373802;32;20090;-72
2022/03/27 11:22:52;;;;;;;7.80;1.98;;;;;;;9.55;40.21;100316.25;4370620;32;20069;-72
2022/03/27 11:25:44;;;;;;;5.87;1.80;;;;;;;9.76;38.86;100324.03;4369028;32;20155;-73
2022/03/27 11:28:16;;;;;;;1.30;1.20;;;;;;;9.44;36.95;100325.78;4369168;32;20473;-72
2022/03/27 11:30:48;;;;;;;7.27;1.53;;;;;;;8.93;36.94;100270.87;4376113;32;20447;-72
2022/03/27 11:33:16;;;;;;;6.07;2.15;;;;;;;10.13;38.98;100292.00;4386927;32;20157;-72
2022/03/27 11:36:09;;;;;;;4.00;1.70;;;;;;;10.75;36.81;100302.16;4369512;32;20060;-72
2022/03/27 11:38:58;;;;;;;2.05;1.25;;;;;;;11.26;34.91;100311.87;4382406;32;20067;-72
2022/03/27 11:41:30;;;;;;;2.65;1.50;;;;;;;10.94;34.32;100302.22;4372447;32;20035;-73
2022/03/27 11:44:16;;;;;;;6.55;1.95;;;;;;;9.43;35.12;100298.09;4372005;32;20052;-72
2022/03/27 11:46:44;;;;;;;3.45;1.75;;;;;;;10.71;37.33;100295.56;4379583;32;20031;-72
2022/03/27 11:49:19;;;;;;;2.20;1.25;;;;;;;10.64;34.71;100286.72;4377143;32;20353;-74
2022/03/27 11:51:46;;;;;;;1.42;1.30;;;;;;;10.45;36.35;100296.59;4368970;32;20078;-73